sensor_id;sensor_type;location;lat;lon;timestamp;temperature;humidity
70170;DHT22;57543;45.442;9.212;2023-06-14T00:01:15;22.01;76.91
70170;DHT22;57543;45.442;9.212;2023-06-14T00:04:18;22.10;76.75
70170;DHT22;57543;45.442;9.212;2023-06-14T00:07:34;22.27;76.22
70170;DHT22;57543;45.442;9.212;2023-06-14T00:10:38;22.48;75.72
70170;DHT22;57543;45.442;9.212;2023-06-14T00:13:44;22.64;75.09
70170;DHT22;57543;45.442;9.212;2023-06-14T00:16:48;22.72;75.03
70170;DHT22;57543;45.442;9.212;2023-06-14T00:19:51;22.81;74.69
70170;DHT22;57543;45.442;9.212;2023-06-14T00:22:56;22.89;74.36
70170;DHT22;57543;45.442;9.212;2023-06-14T00:25:59;22.70;74.60
70170;DHT22;57543;45.442;9.212;2023-06-14T00:29:03;22.25;76.22
70170;DHT22;57543;45.442;9.212;2023-06-14T00:32:07;21.70;78.71
70170;DHT22;57543;45.442;9.212;2023-06-14T00:35:11;21.70;78.98
70170;DHT22;57543;45.442;9.212;2023-06-14T00:38:15;21.93;78.25
70170;DHT22;57543;45.442;9.212;2023-06-14T00:41:18;22.05;77.88
70170;DHT22;57543;45.442;9.212;2023-06-14T00:44:21;22.15;77.57
70170;DHT22;57543;45.442;9.212;2023-06-14T00:47:25;22.29;77.07
70170;DHT22;57543;45.442;9.212;2023-06-14T00:50:30;22.32;77.18
70170;DHT22;57543;45.442;9.212;2023-06-14T00:53:35;22.01;77.37
70170;DHT22;57543;45.442;9.212;2023-06-14T00:56:40;22.10;77.63
70170;DHT22;57543;45.442;9.212;2023-06-14T00:59:46;22.12;77.53
70170;DHT22;57543;45.442;9.212;2023-06-14T01:02:50;22.22;76.98
70170;DHT22;57543;45.442;9.212;2023-06-14T01:06:01;22.28;76.55
70170;DHT22;57543;45.442;9.212;2023-06-14T01:09:36;22.31;76.22
70170;DHT22;57543;45.442;9.212;2023-06-14T01:13:05;22.29;76.04
70170;DHT22;57543;45.442;9.212;2023-06-14T01:16:11;22.24;76.13
70170;DHT22;57543;45.442;9.212;2023-06-14T01:19:15;22.25;76.14
70170;DHT22;57543;45.442;9.212;2023-06-14T01:22:19;22.32;75.56
70170;DHT22;57543;45.442;9.212;2023-06-14T01:25:23;22.27;75.32
70170;DHT22;57543;45.442;9.212;2023-06-14T01:28:27;22.17;75.44
70170;DHT22;57543;45.442;9.212;2023-06-14T01:31:35;22.08;75.99
70170;DHT22;57543;45.442;9.212;2023-06-14T01:34:45;21.98;76.30
70170;DHT22;57543;45.442;9.212;2023-06-14T01:37:50;21.98;76.29
70170;DHT22;57543;45.442;9.212;2023-06-14T01:40:56;21.80;77.12
70170;DHT22;57543;45.442;9.212;2023-06-14T01:44:03;21.80;77.31
70170;DHT22;57543;45.442;9.212;2023-06-14T01:47:10;21.89;77.05
70170;DHT22;57543;45.442;9.212;2023-06-14T01:50:15;21.84;76.80
70170;DHT22;57543;45.442;9.212;2023-06-14T01:53:19;21.87;76.74
70170;DHT22;57543;45.442;9.212;2023-06-14T01:56:22;21.91;76.28
70170;DHT22;57543;45.442;9.212;2023-06-14T01:59:27;21.76;76.30
70170;DHT22;57543;45.442;9.212;2023-06-14T02:02:31;21.66;76.43
70170;DHT22;57543;45.442;9.212;2023-06-14T02:05:34;21.79;75.99
70170;DHT22;57543;45.442;9.212;2023-06-14T02:08:37;21.72;75.38
70170;DHT22;57543;45.442;9.212;2023-06-14T02:11:41;21.74;75.28
70170;DHT22;57543;45.442;9.212;2023-06-14T02:14:44;21.70;75.14
70170;DHT22;57543;45.442;9.212;2023-06-14T02:17:48;21.76;74.51
70170;DHT22;57543;45.442;9.212;2023-06-14T02:20:55;21.80;74.26
70170;DHT22;57543;45.442;9.212;2023-06-14T02:23:58;21.73;74.14
70170;DHT22;57543;45.442;9.212;2023-06-14T02:27:05;21.73;74.28
70170;DHT22;57543;45.442;9.212;2023-06-14T02:30:12;21.62;74.28
70170;DHT22;57543;45.442;9.212;2023-06-14T02:33:16;21.60;74.37
70170;DHT22;57543;45.442;9.212;2023-06-14T02:36:20;21.45;74.87
70170;DHT22;57543;45.442;9.212;2023-06-14T02:39:23;21.43;74.44
70170;DHT22;57543;45.442;9.212;2023-06-14T02:42:27;21.49;74.46
70170;DHT22;57543;45.442;9.212;2023-06-14T02:45:31;21.59;74.49
70170;DHT22;57543;45.442;9.212;2023-06-14T02:48:34;21.65;74.22
70170;DHT22;57543;45.442;9.212;2023-06-14T02:51:38;21.69;74.00
70170;DHT22;57543;45.442;9.212;2023-06-14T02:54:42;21.60;73.97
70170;DHT22;57543;45.442;9.212;2023-06-14T02:57:46;21.62;74.14
70170;DHT22;57543;45.442;9.212;2023-06-14T03:00:51;21.70;74.16
70170;DHT22;57543;45.442;9.212;2023-06-14T03:03:56;21.70;74.06
70170;DHT22;57543;45.442;9.212;2023-06-14T03:07:00;21.69;74.13
70170;DHT22;57543;45.442;9.212;2023-06-14T03:10:09;21.67;74.20
70170;DHT22;57543;45.442;9.212;2023-06-14T03:13:15;21.63;74.32
70170;DHT22;57543;45.442;9.212;2023-06-14T03:16:24;21.69;74.41
70170;DHT22;57543;45.442;9.212;2023-06-14T03:19:28;21.69;74.61
70170;DHT22;57543;45.442;9.212;2023-06-14T03:22:32;21.52;74.88
70170;DHT22;57543;45.442;9.212;2023-06-14T03:25:38;21.49;75.35
70170;DHT22;57543;45.442;9.212;2023-06-14T03:28:46;21.49;75.35
70170;DHT22;57543;45.442;9.212;2023-06-14T03:31:59;21.50;75.22
70170;DHT22;57543;45.442;9.212;2023-06-14T03:35:10;21.53;75.19
70170;DHT22;57543;45.442;9.212;2023-06-14T03:38:20;21.52;75.18
70170;DHT22;57543;45.442;9.212;2023-06-14T03:41:24;21.59;74.99
70170;DHT22;57543;45.442;9.212;2023-06-14T03:44:29;21.60;74.92
70170;DHT22;57543;45.442;9.212;2023-06-14T03:47:34;21.62;74.69
70170;DHT22;57543;45.442;9.212;2023-06-14T03:50:39;21.60;74.58
70170;DHT22;57543;45.442;9.212;2023-06-14T03:53:43;21.66;74.53
70170;DHT22;57543;45.442;9.212;2023-06-14T03:56:47;21.62;74.38
70170;DHT22;57543;45.442;9.212;2023-06-14T03:59:51;21.52;74.61
70170;DHT22;57543;45.442;9.212;2023-06-14T04:02:55;21.46;74.93
70170;DHT22;57543;45.442;9.212;2023-06-14T04:05:59;21.43;75.03
70170;DHT22;57543;45.442;9.212;2023-06-14T04:09:03;21.49;74.92
70170;DHT22;57543;45.442;9.212;2023-06-14T04:12:08;21.53;74.79
70170;DHT22;57543;45.442;9.212;2023-06-14T04:15:17;21.56;74.73
70170;DHT22;57543;45.442;9.212;2023-06-14T04:18:22;21.62;74.71
70170;DHT22;57543;45.442;9.212;2023-06-14T04:21:25;21.63;74.44
70170;DHT22;57543;45.442;9.212;2023-06-14T04:24:32;21.60;74.39
70170;DHT22;57543;45.442;9.212;2023-06-14T04:27:37;21.60;74.36
70170;DHT22;57543;45.442;9.212;2023-06-14T04:30:43;21.60;74.25
70170;DHT22;57543;45.442;9.212;2023-06-14T04:33:48;21.65;74.07
70170;DHT22;57543;45.442;9.212;2023-06-14T04:36:57;21.62;74.11
70170;DHT22;57543;45.442;9.212;2023-06-14T04:40:08;21.63;74.12
70170;DHT22;57543;45.442;9.212;2023-06-14T04:43:14;21.69;73.89
70170;DHT22;57543;45.442;9.212;2023-06-14T04:46:20;21.67;73.97
70170;DHT22;57543;45.442;9.212;2023-06-14T04:49:25;21.65;74.38
70170;DHT22;57543;45.442;9.212;2023-06-14T04:52:30;21.63;74.34
70170;DHT22;57543;45.442;9.212;2023-06-14T04:55:35;21.59;74.45
70170;DHT22;57543;45.442;9.212;2023-06-14T04:58:40;21.60;74.49
70170;DHT22;57543;45.442;9.212;2023-06-14T05:01:45;21.56;74.60
70170;DHT22;57543;45.442;9.212;2023-06-14T05:04:52;21.34;75.31
70170;DHT22;57543;45.442;9.212;2023-06-14T05:07:56;21.37;75.23
70170;DHT22;57543;45.442;9.212;2023-06-14T05:10:59;21.38;75.06
70170;DHT22;57543;45.442;9.212;2023-06-14T05:14:03;21.48;74.62
70170;DHT22;57543;45.442;9.212;2023-06-14T05:17:07;21.50;74.68
70170;DHT22;57543;45.442;9.212;2023-06-14T05:20:11;21.45;74.91
70170;DHT22;57543;45.442;9.212;2023-06-14T05:23:16;21.50;74.59
70170;DHT22;57543;45.442;9.212;2023-06-14T05:26:20;21.46;74.15
70170;DHT22;57543;45.442;9.212;2023-06-14T05:29:24;21.52;74.27
70170;DHT22;57543;45.442;9.212;2023-06-14T05:32:28;21.50;74.38
70170;DHT22;57543;45.442;9.212;2023-06-14T05:35:32;21.53;74.35
70170;DHT22;57543;45.442;9.212;2023-06-14T05:38:36;21.53;74.49
70170;DHT22;57543;45.442;9.212;2023-06-14T05:41:39;21.39;74.39
70170;DHT22;57543;45.442;9.212;2023-06-14T05:44:43;21.41;74.56
70170;DHT22;57543;45.442;9.212;2023-06-14T05:47:47;21.41;74.70
70170;DHT22;57543;45.442;9.212;2023-06-14T05:50:51;21.56;74.48
70170;DHT22;57543;45.442;9.212;2023-06-14T05:53:54;21.59;74.21
70170;DHT22;57543;45.442;9.212;2023-06-14T05:56:58;21.63;73.92
70170;DHT22;57543;45.442;9.212;2023-06-14T06:00:06;21.69;73.65
70170;DHT22;57543;45.442;9.212;2023-06-14T06:03:17;21.66;74.00
70170;DHT22;57543;45.442;9.212;2023-06-14T06:06:21;21.53;74.16
70170;DHT22;57543;45.442;9.212;2023-06-14T06:09:24;21.53;74.10
70170;DHT22;57543;45.442;9.212;2023-06-14T06:12:28;21.46;74.77
70170;DHT22;57543;45.442;9.212;2023-06-14T06:15:32;21.38;75.29
70170;DHT22;57543;45.442;9.212;2023-06-14T06:18:35;21.34;75.35
70170;DHT22;57543;45.442;9.212;2023-06-14T06:21:40;21.42;75.20
70170;DHT22;57543;45.442;9.212;2023-06-14T06:24:44;21.57;74.76
70170;DHT22;57543;45.442;9.212;2023-06-14T06:27:48;21.74;74.40
70170;DHT22;57543;45.442;9.212;2023-06-14T06:30:51;21.87;74.18
70170;DHT22;57543;45.442;9.212;2023-06-14T06:33:55;21.98;73.99
70170;DHT22;57543;45.442;9.212;2023-06-14T06:36:59;22.00;73.87
70170;DHT22;57543;45.442;9.212;2023-06-14T06:40:04;22.00;74.47
70170;DHT22;57543;45.442;9.212;2023-06-14T06:43:09;21.93;75.05
70170;DHT22;57543;45.442;9.212;2023-06-14T06:46:20;22.04;74.72
70170;DHT22;57543;45.442;9.212;2023-06-14T06:49:24;22.19;73.95
70170;DHT22;57543;45.442;9.212;2023-06-14T06:52:28;22.29;73.25
70170;DHT22;57543;45.442;9.212;2023-06-14T06:55:32;22.32;72.85
70170;DHT22;57543;45.442;9.212;2023-06-14T06:58:36;22.45;72.66
70170;DHT22;57543;45.442;9.212;2023-06-14T07:01:39;22.53;72.76
70170;DHT22;57543;45.442;9.212;2023-06-14T07:04:43;22.62;72.73
70170;DHT22;57543;45.442;9.212;2023-06-14T07:07:46;22.55;72.20
70170;DHT22;57543;45.442;9.212;2023-06-14T07:10:50;22.69;72.36
70170;DHT22;57543;45.442;9.212;2023-06-14T07:13:53;22.76;72.61
70170;DHT22;57543;45.442;9.212;2023-06-14T07:16:57;22.86;72.36
70170;DHT22;57543;45.442;9.212;2023-06-14T07:20:04;22.94;72.11
70170;DHT22;57543;45.442;9.212;2023-06-14T07:23:28;22.97;72.07
70170;DHT22;57543;45.442;9.212;2023-06-14T07:26:31;23.10;71.70
70170;DHT22;57543;45.442;9.212;2023-06-14T07:29:35;23.17;71.54
70170;DHT22;57543;45.442;9.212;2023-06-14T07:32:39;23.19;71.79
70170;DHT22;57543;45.442;9.212;2023-06-14T07:35:43;23.29;71.45
70170;DHT22;57543;45.442;9.212;2023-06-14T07:38:47;23.31;71.44
70170;DHT22;57543;45.442;9.212;2023-06-14T07:41:50;23.32;70.86
70170;DHT22;57543;45.442;9.212;2023-06-14T07:44:54;23.32;70.14
70170;DHT22;57543;45.442;9.212;2023-06-14T07:47:57;23.28;70.16
70170;DHT22;57543;45.442;9.212;2023-06-14T07:51:01;23.25;70.30
70170;DHT22;57543;45.442;9.212;2023-06-14T07:54:05;23.26;70.14
70170;DHT22;57543;45.442;9.212;2023-06-14T07:57:11;23.21;70.46
70170;DHT22;57543;45.442;9.212;2023-06-14T08:00:15;23.22;70.15
70170;DHT22;57543;45.442;9.212;2023-06-14T08:03:18;23.14;69.85
70170;DHT22;57543;45.442;9.212;2023-06-14T08:06:22;23.19;69.77
70170;DHT22;57543;45.442;9.212;2023-06-14T08:09:26;23.26;69.28
70170;DHT22;57543;45.442;9.212;2023-06-14T08:12:31;23.18;68.74
70170;DHT22;57543;45.442;9.212;2023-06-14T08:15:34;23.21;68.85
70170;DHT22;57543;45.442;9.212;2023-06-14T08:18:38;23.07;69.11
70170;DHT22;57543;45.442;9.212;2023-06-14T08:21:42;23.26;68.63
70170;DHT22;57543;45.442;9.212;2023-06-14T08:24:47;23.37;67.77
70170;DHT22;57543;45.442;9.212;2023-06-14T08:27:51;23.35;68.25
70170;DHT22;57543;45.442;9.212;2023-06-14T08:30:54;23.38;68.18
70170;DHT22;57543;45.442;9.212;2023-06-14T08:33:58;23.46;68.10
70170;DHT22;57543;45.442;9.212;2023-06-14T08:37:02;23.58;67.52
70170;DHT22;57543;45.442;9.212;2023-06-14T08:40:17;23.73;66.95
70170;DHT22;57543;45.442;9.212;2023-06-14T08:43:21;23.81;66.19
70170;DHT22;57543;45.442;9.212;2023-06-14T08:46:25;23.88;65.53
70170;DHT22;57543;45.442;9.212;2023-06-14T08:49:31;23.97;66.14
70170;DHT22;57543;45.442;9.212;2023-06-14T08:52:38;24.04;65.97
70170;DHT22;57543;45.442;9.212;2023-06-14T08:55:49;23.67;65.24
70170;DHT22;57543;45.442;9.212;2023-06-14T08:58:54;23.63;65.91
70170;DHT22;57543;45.442;9.212;2023-06-14T09:01:58;23.60;66.14
70170;DHT22;57543;45.442;9.212;2023-06-14T09:05:03;23.62;66.10
70170;DHT22;57543;45.442;9.212;2023-06-14T09:08:07;23.06;67.74
70170;DHT22;57543;45.442;9.212;2023-06-14T09:11:12;23.12;68.75
70170;DHT22;57543;45.442;9.212;2023-06-14T09:14:21;23.07;68.53
70170;DHT22;57543;45.442;9.212;2023-06-14T09:17:25;23.34;69.59
70170;DHT22;57543;45.442;9.212;2023-06-14T09:20:30;23.67;68.73
70170;DHT22;57543;45.442;9.212;2023-06-14T09:23:37;24.03;68.46
70170;DHT22;57543;45.442;9.212;2023-06-14T09:26:41;24.03;67.03
70170;DHT22;57543;45.442;9.212;2023-06-14T09:29:45;23.97;67.47
70170;DHT22;57543;45.442;9.212;2023-06-14T09:32:48;24.29;67.04
70170;DHT22;57543;45.442;9.212;2023-06-14T09:35:52;24.43;66.08
70170;DHT22;57543;45.442;9.212;2023-06-14T09:39:00;24.43;64.95
70170;DHT22;57543;45.442;9.212;2023-06-14T09:42:18;24.36;65.42
70170;DHT22;57543;45.442;9.212;2023-06-14T09:45:25;24.35;65.18
70170;DHT22;57543;45.442;9.212;2023-06-14T09:48:32;24.39;64.78
70170;DHT22;57543;45.442;9.212;2023-06-14T09:51:42;24.32;64.55
70170;DHT22;57543;45.442;9.212;2023-06-14T09:54:47;24.31;64.77
70170;DHT22;57543;45.442;9.212;2023-06-14T09:57:53;24.29;65.30
70170;DHT22;57543;45.442;9.212;2023-06-14T10:00:58;24.55;64.86
70170;DHT22;57543;45.442;9.212;2023-06-14T10:04:04;24.69;64.32
70170;DHT22;57543;45.442;9.212;2023-06-14T10:07:09;24.70;62.01
70170;DHT22;57543;45.442;9.212;2023-06-14T10:10:14;24.62;60.02
70170;DHT22;57543;45.442;9.212;2023-06-14T10:13:18;24.77;59.49
70170;DHT22;57543;45.442;9.212;2023-06-14T10:17:03;24.88;59.53
70170;DHT22;57543;45.442;9.212;2023-06-14T10:23:20;24.90;59.88
70170;DHT22;57543;45.442;9.212;2023-06-14T10:26:25;24.82;61.01
70170;DHT22;57543;45.442;9.212;2023-06-14T10:29:29;24.95;62.68
70170;DHT22;57543;45.442;9.212;2023-06-14T10:33:07;24.88;62.60
70170;DHT22;57543;45.442;9.212;2023-06-14T10:36:29;24.91;62.13
70170;DHT22;57543;45.442;9.212;2023-06-14T10:39:40;24.73;60.97
70170;DHT22;57543;45.442;9.212;2023-06-14T10:42:53;24.49;61.30
70170;DHT22;57543;45.442;9.212;2023-06-14T10:46:17;24.66;61.98
70170;DHT22;57543;45.442;9.212;2023-06-14T10:49:54;24.79;60.66
70170;DHT22;57543;45.442;9.212;2023-06-14T10:52:58;24.66;62.68
70170;DHT22;57543;45.442;9.212;2023-06-14T10:56:06;24.94;62.20
70170;DHT22;57543;45.442;9.212;2023-06-14T10:59:10;24.98;60.83
70170;DHT22;57543;45.442;9.212;2023-06-14T11:05:25;24.95;60.88
70170;DHT22;57543;45.442;9.212;2023-06-14T11:08:47;25.03;61.87
70170;DHT22;57543;45.442;9.212;2023-06-14T11:11:56;25.20;61.47
70170;DHT22;57543;45.442;9.212;2023-06-14T11:15:00;25.32;59.54
70170;DHT22;57543;45.442;9.212;2023-06-14T11:18:05;25.55;58.97
70170;DHT22;57543;45.442;9.212;2023-06-14T11:21:09;25.67;59.38
70170;DHT22;57543;45.442;9.212;2023-06-14T11:24:13;25.82;56.50
70170;DHT22;57543;45.442;9.212;2023-06-14T11:27:16;26.01;58.02
70170;DHT22;57543;45.442;9.212;2023-06-14T11:30:19;26.14;59.01
70170;DHT22;57543;45.442;9.212;2023-06-14T11:33:23;26.05;57.84
70170;DHT22;57543;45.442;9.212;2023-06-14T11:36:28;26.21;57.50
70170;DHT22;57543;45.442;9.212;2023-06-14T11:39:34;26.27;56.42
70170;DHT22;57543;45.442;9.212;2023-06-14T11:42:40;26.17;55.02
70170;DHT22;57543;45.442;9.212;2023-06-14T11:45:48;25.83;54.94
70170;DHT22;57543;45.442;9.212;2023-06-14T11:49:11;25.65;56.22
70170;DHT22;57543;45.442;9.212;2023-06-14T11:52:16;25.73;56.66
70170;DHT22;57543;45.442;9.212;2023-06-14T11:55:20;25.70;56.33
70170;DHT22;57543;45.442;9.212;2023-06-14T11:58:25;25.79;55.17
70170;DHT22;57543;45.442;9.212;2023-06-14T12:01:30;25.93;55.22
70170;DHT22;57543;45.442;9.212;2023-06-14T12:04:35;26.08;55.52
70170;DHT22;57543;45.442;9.212;2023-06-14T12:07:39;26.25;52.98
70170;DHT22;57543;45.442;9.212;2023-06-14T12:10:45;26.49;52.70
70170;DHT22;57543;45.442;9.212;2023-06-14T12:13:49;26.73;53.65
70170;DHT22;57543;45.442;9.212;2023-06-14T12:17:06;26.75;52.41
70170;DHT22;57543;45.442;9.212;2023-06-14T12:20:13;26.93;52.69
70170;DHT22;57543;45.442;9.212;2023-06-14T12:23:17;27.06;52.03
70170;DHT22;57543;45.442;9.212;2023-06-14T12:26:20;27.23;51.99
70170;DHT22;57543;45.442;9.212;2023-06-14T12:29:25;27.23;51.92
70170;DHT22;57543;45.442;9.212;2023-06-14T12:32:29;27.24;50.45
70170;DHT22;57543;45.442;9.212;2023-06-14T12:35:33;27.07;51.45
70170;DHT22;57543;45.442;9.212;2023-06-14T12:38:37;27.03;51.71
70170;DHT22;57543;45.442;9.212;2023-06-14T12:41:41;27.04;53.63
70170;DHT22;57543;45.442;9.212;2023-06-14T12:44:45;27.00;52.30
70170;DHT22;57543;45.442;9.212;2023-06-14T12:47:48;27.27;52.38
70170;DHT22;57543;45.442;9.212;2023-06-14T12:50:51;27.46;50.56
70170;DHT22;57543;45.442;9.212;2023-06-14T12:53:55;27.42;51.59
70170;DHT22;57543;45.442;9.212;2023-06-14T12:56:58;27.44;52.69
70170;DHT22;57543;45.442;9.212;2023-06-14T13:00:02;27.63;52.70
70170;DHT22;57543;45.442;9.212;2023-06-14T13:03:06;27.73;52.87
70170;DHT22;57543;45.442;9.212;2023-06-14T13:06:10;27.94;52.34
70170;DHT22;57543;45.442;9.212;2023-06-14T13:09:14;28.08;51.60
70170;DHT22;57543;45.442;9.212;2023-06-14T13:12:18;28.11;51.17
70170;DHT22;57543;45.442;9.212;2023-06-14T13:15:22;28.00;51.54
70170;DHT22;57543;45.442;9.212;2023-06-14T13:18:25;28.04;51.57
70170;DHT22;57543;45.442;9.212;2023-06-14T13:21:28;28.20;51.74
70170;DHT22;57543;45.442;9.212;2023-06-14T13:24:32;28.15;53.18
70170;DHT22;57543;45.442;9.212;2023-06-14T13:27:36;28.24;53.30
70170;DHT22;57543;45.442;9.212;2023-06-14T13:30:39;28.18;51.40
70170;DHT22;57543;45.442;9.212;2023-06-14T13:33:43;28.06;50.83
70170;DHT22;57543;45.442;9.212;2023-06-14T13:36:48;27.89;50.94
70170;DHT22;57543;45.442;9.212;2023-06-14T13:39:52;27.93;50.41
70170;DHT22;57543;45.442;9.212;2023-06-14T13:42:55;27.96;51.52
70170;DHT22;57543;45.442;9.212;2023-06-14T13:45:58;28.11;51.39
70170;DHT22;57543;45.442;9.212;2023-06-14T13:49:02;28.31;51.44
70170;DHT22;57543;45.442;9.212;2023-06-14T13:52:08;28.07;51.35
70170;DHT22;57543;45.442;9.212;2023-06-14T13:55:12;28.08;51.67
70170;DHT22;57543;45.442;9.212;2023-06-14T13:58:17;27.92;51.71
70170;DHT22;57543;45.442;9.212;2023-06-14T14:01:21;27.83;53.17
70170;DHT22;57543;45.442;9.212;2023-06-14T14:04:26;27.85;52.66
70170;DHT22;57543;45.442;9.212;2023-06-14T14:07:29;27.49;53.77
70170;DHT22;57543;45.442;9.212;2023-06-14T14:10:33;27.53;53.63
70170;DHT22;57543;45.442;9.212;2023-06-14T14:13:36;27.63;53.38
70170;DHT22;57543;45.442;9.212;2023-06-14T14:16:41;27.33;52.99
70170;DHT22;57543;45.442;9.212;2023-06-14T14:19:45;26.78;53.18
70170;DHT22;57543;45.442;9.212;2023-06-14T14:22:49;27.08;53.17
70170;DHT22;57543;45.442;9.212;2023-06-14T14:25:53;27.41;52.95
70170;DHT22;57543;45.442;9.212;2023-06-14T14:28:56;27.62;52.00
70170;DHT22;57543;45.442;9.212;2023-06-14T14:32:00;27.73;50.74
70170;DHT22;57543;45.442;9.212;2023-06-14T14:35:04;27.83;50.57
70170;DHT22;57543;45.442;9.212;2023-06-14T14:38:08;27.45;51.26
70170;DHT22;57543;45.442;9.212;2023-06-14T14:41:12;27.38;51.43
70170;DHT22;57543;45.442;9.212;2023-06-14T14:44:15;27.23;52.81
70170;DHT22;57543;45.442;9.212;2023-06-14T14:47:19;27.23;52.72
70170;DHT22;57543;45.442;9.212;2023-06-14T14:50:22;26.93;53.20
70170;DHT22;57543;45.442;9.212;2023-06-14T14:53:26;26.97;52.62
70170;DHT22;57543;45.442;9.212;2023-06-14T14:56:29;27.00;53.13
70170;DHT22;57543;45.442;9.212;2023-06-14T14:59:33;27.11;52.94
70170;DHT22;57543;45.442;9.212;2023-06-14T15:02:36;27.28;52.80
70170;DHT22;57543;45.442;9.212;2023-06-14T15:05:40;27.34;52.48
70170;DHT22;57543;45.442;9.212;2023-06-14T15:08:44;27.20;52.96
70170;DHT22;57543;45.442;9.212;2023-06-14T15:11:48;27.21;53.14
70170;DHT22;57543;45.442;9.212;2023-06-14T15:14:52;27.07;53.28
70170;DHT22;57543;45.442;9.212;2023-06-14T15:17:56;27.20;53.72
70170;DHT22;57543;45.442;9.212;2023-06-14T15:21:00;27.23;52.68
70170;DHT22;57543;45.442;9.212;2023-06-14T15:24:04;27.28;53.54
70170;DHT22;57543;45.442;9.212;2023-06-14T15:27:08;27.31;53.98
70170;DHT22;57543;45.442;9.212;2023-06-14T15:30:12;26.93;53.31
70170;DHT22;57543;45.442;9.212;2023-06-14T15:33:16;26.80;53.27
70170;DHT22;57543;45.442;9.212;2023-06-14T15:36:19;26.82;53.73
70170;DHT22;57543;45.442;9.212;2023-06-14T15:39:23;26.86;53.53
70170;DHT22;57543;45.442;9.212;2023-06-14T15:42:27;26.76;53.95
70170;DHT22;57543;45.442;9.212;2023-06-14T15:45:30;26.79;53.03
70170;DHT22;57543;45.442;9.212;2023-06-14T15:48:34;26.72;54.07
70170;DHT22;57543;45.442;9.212;2023-06-14T15:51:40;26.84;53.48
70170;DHT22;57543;45.442;9.212;2023-06-14T15:54:43;27.00;53.23
70170;DHT22;57543;45.442;9.212;2023-06-14T15:57:47;27.00;52.66
70170;DHT22;57543;45.442;9.212;2023-06-14T16:00:50;27.07;52.76
70170;DHT22;57543;45.442;9.212;2023-06-14T16:03:54;27.14;52.73
70170;DHT22;57543;45.442;9.212;2023-06-14T16:07:02;26.97;53.18
70170;DHT22;57543;45.442;9.212;2023-06-14T16:10:06;27.01;53.22
70170;DHT22;57543;45.442;9.212;2023-06-14T16:13:10;26.89;53.23
70170;DHT22;57543;45.442;9.212;2023-06-14T16:16:13;26.75;53.77
70170;DHT22;57543;45.442;9.212;2023-06-14T16:19:17;26.66;53.81
70170;DHT22;57543;45.442;9.212;2023-06-14T16:22:22;26.82;53.47
70170;DHT22;57543;45.442;9.212;2023-06-14T16:25:25;26.49;54.27
70170;DHT22;57543;45.442;9.212;2023-06-14T16:28:30;26.55;54.85
70170;DHT22;57543;45.442;9.212;2023-06-14T16:31:35;26.69;54.18
70170;DHT22;57543;45.442;9.212;2023-06-14T16:34:38;26.62;53.69
70170;DHT22;57543;45.442;9.212;2023-06-14T16:37:41;26.46;53.31
70170;DHT22;57543;45.442;9.212;2023-06-14T16:40:45;26.56;53.19
70170;DHT22;57543;45.442;9.212;2023-06-14T16:43:48;26.56;53.61
70170;DHT22;57543;45.442;9.212;2023-06-14T16:46:52;26.57;53.74
70170;DHT22;57543;45.442;9.212;2023-06-14T16:49:56;26.62;53.01
70170;DHT22;57543;45.442;9.212;2023-06-14T16:53:00;26.59;52.80
70170;DHT22;57543;45.442;9.212;2023-06-14T16:56:03;26.37;53.08
70170;DHT22;57543;45.442;9.212;2023-06-14T16:59:09;26.42;52.74
70170;DHT22;57543;45.442;9.212;2023-06-14T17:02:13;26.34;53.16
70170;DHT22;57543;45.442;9.212;2023-06-14T17:05:17;26.32;53.43
70170;DHT22;57543;45.442;9.212;2023-06-14T17:08:21;26.28;53.14
70170;DHT22;57543;45.442;9.212;2023-06-14T17:11:24;26.28;53.13
70170;DHT22;57543;45.442;9.212;2023-06-14T17:14:28;26.17;53.52
70170;DHT22;57543;45.442;9.212;2023-06-14T17:17:32;26.11;53.61
70170;DHT22;57543;45.442;9.212;2023-06-14T17:20:36;26.13;53.42
70170;DHT22;57543;45.442;9.212;2023-06-14T17:23:40;26.17;53.14
70170;DHT22;57543;45.442;9.212;2023-06-14T17:26:43;26.11;53.41
70170;DHT22;57543;45.442;9.212;2023-06-14T17:29:47;26.04;53.20
70170;DHT22;57543;45.442;9.212;2023-06-14T17:32:52;25.96;53.92
70170;DHT22;57543;45.442;9.212;2023-06-14T17:35:56;25.89;54.69
70170;DHT22;57543;45.442;9.212;2023-06-14T17:39:00;25.86;54.84
70170;DHT22;57543;45.442;9.212;2023-06-14T17:42:04;25.82;55.25
70170;DHT22;57543;45.442;9.212;2023-06-14T17:45:08;25.92;55.40
70170;DHT22;57543;45.442;9.212;2023-06-14T17:48:12;25.93;55.59
70170;DHT22;57543;45.442;9.212;2023-06-14T17:51:15;25.87;56.43
70170;DHT22;57543;45.442;9.212;2023-06-14T17:54:21;25.83;56.75
70170;DHT22;57543;45.442;9.212;2023-06-14T17:57:24;25.82;57.07
70170;DHT22;57543;45.442;9.212;2023-06-14T18:00:28;25.82;56.80
70170;DHT22;57543;45.442;9.212;2023-06-14T18:03:32;25.79;56.86
70170;DHT22;57543;45.442;9.212;2023-06-14T18:06:35;25.76;57.04
70170;DHT22;57543;45.442;9.212;2023-06-14T18:09:39;25.72;57.33
70170;DHT22;57543;45.442;9.212;2023-06-14T18:12:43;25.62;57.78
70170;DHT22;57543;45.442;9.212;2023-06-14T18:15:46;25.46;58.51
70170;DHT22;57543;45.442;9.212;2023-06-14T18:18:50;25.46;58.71
70170;DHT22;57543;45.442;9.212;2023-06-14T18:21:55;25.55;58.30
70170;DHT22;57543;45.442;9.212;2023-06-14T18:25:00;25.55;58.39
70170;DHT22;57543;45.442;9.212;2023-06-14T18:28:04;25.46;58.31
70170;DHT22;57543;45.442;9.212;2023-06-14T18:31:08;25.38;58.60
70170;DHT22;57543;45.442;9.212;2023-06-14T18:34:12;25.20;59.35
70170;DHT22;57543;45.442;9.212;2023-06-14T18:37:16;25.34;59.25
70170;DHT22;57543;45.442;9.212;2023-06-14T18:40:19;25.39;59.31
70170;DHT22;57543;45.442;9.212;2023-06-14T18:43:23;25.31;59.76
70170;DHT22;57543;45.442;9.212;2023-06-14T18:46:27;25.29;60.02
70170;DHT22;57543;45.442;9.212;2023-06-14T18:49:31;25.18;60.44
70170;DHT22;57543;45.442;9.212;2023-06-14T18:52:35;25.25;60.35
70170;DHT22;57543;45.442;9.212;2023-06-14T18:55:38;25.18;60.67
70170;DHT22;57543;45.442;9.212;2023-06-14T18:58:42;25.15;60.76
70170;DHT22;57543;45.442;9.212;2023-06-14T19:01:45;25.20;60.61
70170;DHT22;57543;45.442;9.212;2023-06-14T19:04:48;25.15;60.87
70170;DHT22;57543;45.442;9.212;2023-06-14T19:07:52;25.12;61.03
70170;DHT22;57543;45.442;9.212;2023-06-14T19:10:56;25.04;61.38
70170;DHT22;57543;45.442;9.212;2023-06-14T19:14:00;25.04;61.36
70170;DHT22;57543;45.442;9.212;2023-06-14T19:17:04;25.01;61.22
70170;DHT22;57543;45.442;9.212;2023-06-14T19:20:10;25.00;61.16
70170;DHT22;57543;45.442;9.212;2023-06-14T19:23:14;25.03;61.04
70170;DHT22;57543;45.442;9.212;2023-06-14T19:26:18;25.00;60.82
70170;DHT22;57543;45.442;9.212;2023-06-14T19:29:21;25.03;60.59
70170;DHT22;57543;45.442;9.212;2023-06-14T19:32:25;25.00;59.83
70170;DHT22;57543;45.442;9.212;2023-06-14T19:35:28;24.94;60.04